Time;durP1;ratioP1;P1;durP2;ratioP2;P2;SDS_P1;SDS_P2;PMS_P1;PMS_P2;Temp;Humidity;BMP_temperature;BMP_pressure;BME280_temperature;BME280_humidity;BME280_pressure;Samples;Min_cycle;Max_cycle;Signal;HPM_P1;HPM_P2
2022/09/22 00:01:06;;;;;;;0.40;0.40;;;;;;;9.18;77.46;101388.50;5064684;28;20538;-70
2022/09/22 00:03:32;;;;;;;0.40;0.40;;;;;;;9.24;77.47;101397.22;5064794;28;20119;-70
2022/09/22 00:06:08;;;;;;;0.40;0.40;;;;;;;9.16;77.62;101387.66;5063014;28;20057;-69
2022/09/22 00:08:36;;;;;;;0.50;0.50;;;;;;;9.20;77.78;101395.47;5063355;28;20116;-70
2022/09/22 00:11:12;;;;;;;0.40;0.40;;;;;;;9.11;77.95;101381.53;5063490;28;20027;-70
2022/09/22 00:13:40;;;;;;;0.40;0.40;;;;;;;9.12;78.05;101392.78;5062383;28;20416;-70
2022/09/22 00:16:10;;;;;;;0.30;0.30;;;;;;;9.11;78.08;101389.28;5062220;28;20098;-71
2022/09/22 00:18:36;;;;;;;0.40;0.40;;;;;;;9.13;77.96;101387.59;5064013;28;20020;-70
2022/09/22 00:21:22;;;;;;;0.30;0.30;;;;;;;9.12;78.24;101382.41;5061971;28;20264;-69
2022/09/22 00:23:48;;;;;;;0.40;0.40;;;;;;;9.16;78.21;101379.00;5063645;28;20028;-69
2022/09/22 00:26:17;;;;;;;0.40;0.40;;;;;;;9.06;78.23;101380.59;5064321;28;20093;-69
2022/09/22 00:28:44;;;;;;;0.40;0.40;;;;;;;9.04;78.48;101380.56;5064604;28;20020;-69
2022/09/22 00:31:12;;;;;;;0.40;0.40;;;;;;;9.04;78.50;101380.56;5063191;28;20048;-69
2022/09/22 00:33:40;;;;;;;0.40;0.40;;;;;;;9.08;78.46;101386.66;5063072;28;20032;-69
2022/09/22 00:36:06;;;;;;;0.35;0.35;;;;;;;9.03;78.58;101383.13;5064514;28;20047;-69
2022/09/22 00:38:32;;;;;;;0.40;0.40;;;;;;;9.08;78.40;101390.97;5064335;28;20021;-69
2022/09/22 00:40:59;;;;;;;0.40;0.40;;;;;;;9.01;78.69;101390.03;5064481;28;20021;-70
2022/09/22 00:43:26;;;;;;;0.35;0.35;;;;;;;8.97;78.50;101380.47;5064097;28;20535;-69
2022/09/22 00:46:00;;;;;;;0.35;0.35;;;;;;;8.95;78.47;101379.56;5064649;28;20021;-69
2022/09/22 00:48:31;;;;;;;0.40;0.40;;;;;;;8.91;78.61;101371.75;5064105;28;20021;-70
2022/09/22 00:51:01;;;;;;;0.40;0.40;;;;;;;8.95;78.77;101379.56;5064302;28;20025;-70
2022/09/22 00:53:28;;;;;;;0.40;0.40;;;;;;;8.93;78.80;101380.41;5064288;28;20052;-69
2022/09/22 00:56:13;;;;;;;0.40;0.40;;;;;;;8.96;78.80;101381.31;5064065;28;20028;-69
2022/09/22 00:58:48;;;;;;;0.50;0.50;;;;;;;8.92;78.82;101365.75;5064192;28;20032;-69
2022/09/22 01:01:14;;;;;;;0.40;0.40;;;;;;;8.92;78.61;101380.41;5063989;28;20018;-70
2022/09/22 01:03:41;;;;;;;0.40;0.40;;;;;;;8.94;78.77;101383.88;5064054;28;20606;-69
2022/09/22 01:06:11;;;;;;;0.40;0.40;;;;;;;8.95;78.69;101379.56;5063891;28;20584;-69
2022/09/22 01:08:38;;;;;;;0.40;0.40;;;;;;;8.92;78.95;101375.22;5064354;28;20017;-69
2022/09/22 01:11:05;;;;;;;0.40;0.40;;;;;;;8.92;78.92;101376.09;5064000;28;20595;-70
2022/09/22 01:13:58;;;;;;;0.40;0.40;;;;;;;8.93;78.87;101380.41;5062522;28;20028;-69
2022/09/22 01:16:39;;;;;;;0.40;0.40;;;;;;;8.93;79.01;101377.81;5063312;28;20045;-70
2022/09/22 01:19:59;;;;;;;0.40;0.40;;;;;;;8.92;79.15;101375.22;5063899;28;20064;-70
2022/09/22 01:22:45;;;;;;;0.60;0.60;;;;;;;8.89;79.21;101373.47;5021706;28;20102;-70
2022/09/22 01:25:29;;;;;;;0.40;0.40;;;;;;;8.91;78.99;101371.75;5021655;28;20112;-70
2022/09/22 01:28:36;;;;;;;0.40;0.40;;;;;;;8.95;79.15;101366.59;5025471;28;20041;-70
2022/09/22 01:31:40;;;;;;;0.40;0.40;;;;;;;9.00;79.06;101376.19;5025861;28;20394;-70
2022/09/22 01:34:16;;;;;;;0.40;0.40;;;;;;;9.02;78.98;101361.56;5024717;28;20522;-69
2022/09/22 01:37:06;;;;;;;0.40;0.40;;;;;;;9.03;78.94;101365.88;5025389;28;20042;-69
2022/09/22 01:39:47;;;;;;;0.40;0.40;;;;;;;9.05;78.87;101361.59;5025476;28;20030;-70
2022/09/22 01:42:30;;;;;;;0.40;0.40;;;;;;;9.00;78.91;101357.19;5025348;28;20036;-69
2022/09/22 01:45:10;;;;;;;0.40;0.40;;;;;;;9.01;79.19;101352.03;5025615;28;20038;-69
2022/09/22 01:47:46;;;;;;;0.40;0.40;;;;;;;9.03;78.82;101352.94;5024782;28;20040;-70
2022/09/22 01:50:24;;;;;;;0.40;0.40;;;;;;;9.03;78.64;101346.88;5023039;28;20042;-69
2022/09/22 01:52:52;;;;;;;0.40;0.40;;;;;;;9.01;78.59;101353.78;5007634;28;20533;-70
2022/09/22 01:55:28;;;;;;;0.40;0.40;;;;;;;8.97;78.66;101345.06;5026558;28;20033;-70
2022/09/22 01:58:10;;;;;;;0.32;0.32;;;;;;;8.88;78.74;101345.81;5066944;28;20017;-70
2022/09/22 02:00:39;;;;;;;0.40;0.40;;;;;;;8.91;78.58;101347.59;5067014;28;20029;-69
2022/09/22 02:03:09;;;;;;;0.45;0.45;;;;;;;8.91;78.44;101356.22;5067089;28;20055;-70
2022/09/22 02:05:43;;;;;;;0.40;0.40;;;;;;;8.79;78.59;101340.50;5067175;28;20037;-70
2022/09/22 02:08:15;;;;;;;0.40;0.40;;;;;;;8.83;78.84;101355.25;5066971;28;20032;-70
2022/09/22 02:10:43;;;;;;;;;;;;;;;8.83;78.75;101354.38;5066227;28;20029;-70
2022/09/22 02:13:08;;;;;;;0.40;0.40;;;;;;;8.76;78.75;101346.53;5065561;28;19934;-69
2022/09/22 02:18:34;;;;;;;0.40;0.40;;;;;;;8.68;79.00;101343.81;5066906;28;20052;-70
2022/09/22 02:21:00;;;;;;;0.40;0.40;;;;;;;8.72;78.82;101349.91;5067015;28;20028;-70
2022/09/22 02:23:26;;;;;;;0.40;0.40;;;;;;;8.68;79.08;101341.25;5066892;28;20021;-69
2022/09/22 02:25:53;;;;;;;0.40;0.40;;;;;;;8.62;79.43;101340.28;5066872;28;20033;-70
2022/09/22 02:28:22;;;;;;;0.40;0.40;;;;;;;8.62;79.46;101342.84;5066553;28;20032;-69
2022/09/22 02:30:51;;;;;;;0.40;0.40;;;;;;;8.60;79.45;101341.97;5065125;28;20028;-70
2022/09/22 02:33:20;;;;;;;0.40;0.40;;;;;;;8.58;79.70;101343.66;5066995;28;20025;-70
2022/09/22 02:35:50;;;;;;;0.40;0.40;;;;;;;8.61;79.59;101341.13;5066466;28;20024;-70
2022/09/22 02:38:20;;;;;;;0.40;0.40;;;;;;;8.55;79.83;101331.53;5065912;28;20043;-70
2022/09/22 02:40:54;;;;;;;0.40;0.40;;;;;;;8.52;80.03;101340.09;5066419;28;20029;-70
2022/09/22 02:43:32;;;;;;;0.40;0.40;;;;;;;8.56;79.90;101333.28;5066494;28;20025;-69
2022/09/22 02:46:07;;;;;;;0.40;0.40;;;;;;;8.52;80.09;101328.88;5067312;28;20056;-69
2022/09/22 02:48:46;;;;;;;0.40;0.40;;;;;;;8.51;79.99;101337.50;5066996;28;20112;-70
2022/09/22 02:51:13;;;;;;;0.40;0.40;;;;;;;8.45;80.33;101345.16;5067313;28;20029;-70
2022/09/22 02:53:39;;;;;;;0.40;0.40;;;;;;;8.39;80.42;101344.22;5067004;28;20024;-70
2022/09/22 02:56:04;;;;;;;0.40;0.40;;;;;;;8.35;80.35;101338.97;5066948;28;20048;-71
2022/09/22 02:58:30;;;;;;;0.40;0.40;;;;;;;8.36;80.38;101333.81;5065519;28;20427;-70
2022/09/22 03:00:55;;;;;;;0.40;0.40;;;;;;;8.38;80.33;101339.00;5065447;28;20025;-69
2022/09/22 03:03:21;;;;;;;0.40;0.40;;;;;;;8.38;80.39;101336.44;5065445;28;20133;-70
2022/09/22 03:05:46;;;;;;;0.40;0.40;;;;;;;8.27;80.62;101324.22;5066826;28;20043;-70
2022/09/22 03:08:11;;;;;;;0.40;0.40;;;;;;;8.28;80.77;101331.09;5066918;28;20123;-70
2022/09/22 03:10:37;;;;;;;0.40;0.40;;;;;;;8.35;80.74;101331.22;5067065;28;20076;-70
2022/09/22 03:13:02;;;;;;;0.40;0.40;;;;;;;8.34;81.01;101339.81;5067080;28;20024;-70
2022/09/22 03:15:27;;;;;;;0.40;0.40;;;;;;;8.30;81.21;101332.00;5065281;28;20048;-69
2022/09/22 03:17:53;;;;;;;0.40;0.40;;;;;;;8.29;81.13;101327.66;5065009;28;20085;-69
2022/09/22 03:20:18;;;;;;;4.97;2.78;;;;;;;8.19;81.19;101321.47;5065509;28;20461;-70
2022/09/22 03:22:44;;;;;;;0.40;0.40;;;;;;;8.22;81.43;101319.78;5066496;28;20097;-70
2022/09/22 03:25:09;;;;;;;6.75;2.58;;;;;;;8.23;81.74;101324.97;5066795;28;20043;-69
2022/09/22 03:27:36;;;;;;;0.40;0.40;;;;;;;8.23;81.91;101332.75;5065509;28;20029;-70
2022/09/22 03:30:03;;;;;;;0.47;0.47;;;;;;;8.14;82.00;101323.13;5063857;28;20048;-70
2022/09/22 03:32:29;;;;;;;0.70;0.70;;;;;;;8.19;82.04;101330.97;5065978;28;20025;-69
2022/09/22 03:34:55;;;;;;;1.00;0.95;;;;;;;8.21;82.09;101315.47;5066690;28;20035;-68
2022/09/22 03:37:21;;;;;;;0.40;0.40;;;;;;;8.19;82.22;101313.72;5066231;28;20057;-69
2022/09/22 03:39:46;;;;;;;0.43;0.43;;;;;;;8.21;82.22;101307.72;5065156;28;20539;-68
2022/09/22 03:42:11;;;;;;;0.40;0.40;;;;;;;8.22;82.29;101315.50;5066265;28;20116;-68
2022/09/22 03:44:36;;;;;;;0.40;0.40;;;;;;;8.19;82.34;101311.13;5065851;28;20116;-69
2022/09/22 03:47:03;;;;;;;0.40;0.40;;;;;;;8.14;82.58;101317.06;5065821;28;20071;-69
2022/09/22 03:49:29;;;;;;;0.40;0.40;;;;;;;8.10;82.70;101313.56;5065289;28;20025;-69
2022/09/22 03:51:54;;;;;;;0.50;0.50;;;;;;;8.09;82.81;101314.41;5063896;28;20175;-69
2022/09/22 03:54:22;;;;;;;0.40;0.40;;;;;;;8.09;82.99;101303.19;5064086;28;20108;-69
2022/09/22 03:56:48;;;;;;;0.40;0.40;;;;;;;8.16;82.97;101305.91;5065585;28;20040;-69
2022/09/22 03:59:13;;;;;;;0.40;0.40;;;;;;;8.22;83.01;101310.31;5065777;28;20412;-72
2022/09/22 04:01:39;;;;;;;0.40;0.40;;;;;;;8.24;82.88;101297.41;5065825;28;20033;-71
2022/09/22 04:04:05;;;;;;;0.40;0.40;;;;;;;8.23;83.00;101300.81;5065619;28;20033;-71
2022/09/22 04:06:31;;;;;;;0.40;0.40;;;;;;;8.25;82.85;101305.19;5065677;28;20044;-72
2022/09/22 04:08:56;;;;;;;0.40;0.40;;;;;;;8.22;82.87;101299.97;5062030;28;20025;-69
2022/09/22 04:11:23;;;;;;;0.40;0.40;;;;;;;8.28;82.90;101299.19;5065593;28;20477;-68
2022/09/22 04:13:49;;;;;;;0.40;0.40;;;;;;;8.25;82.72;101294.84;5064145;28;20116;-68
2022/09/22 04:16:14;;;;;;;0.40;0.40;;;;;;;8.24;82.93;101303.44;5065295;28;20049;-68
2022/09/22 04:18:39;;;;;;;0.40;0.40;;;;;;;8.21;82.92;101303.38;5063949;28;20036;-69
2022/09/22 04:21:06;;;;;;;0.40;0.40;;;;;;;8.13;83.11;101295.50;5064482;28;20068;-68
2022/09/22 04:23:31;;;;;;;0.40;0.40;;;;;;;8.14;82.95;101297.25;5078974;28;20036;-68
2022/09/22 04:25:57;;;;;;;0.40;0.40;;;;;;;8.11;83.33;101302.38;5063464;28;20032;-68
2022/09/22 04:28:24;;;;;;;0.50;0.50;;;;;;;8.12;83.36;101300.66;5062826;28;20029;-68
2022/09/22 04:30:49;;;;;;;0.40;0.40;;;;;;;8.09;83.40;101300.59;5064280;28;20021;-68
2022/09/22 04:33:15;;;;;;;0.40;0.40;;;;;;;8.07;83.61;101298.00;5064025;28;20024;-68
2022/09/22 04:35:40;;;;;;;0.80;0.80;;;;;;;8.07;84.13;101295.41;5064323;28;20499;-68
2022/09/22 04:38:06;;;;;;;0.40;0.40;;;;;;;8.06;84.01;101302.31;5064290;28;20052;-69
2022/09/22 04:40:32;;;;;;;0.40;0.40;;;;;;;8.07;84.02;101305.75;5064344;28;20025;-69
2022/09/22 04:42:58;;;;;;;0.40;0.40;;;;;;;8.04;84.22;101301.41;5064507;28;20020;-69
2022/09/22 04:45:23;;;;;;;0.40;0.40;;;;;;;8.07;84.25;101298.00;5064386;28;20529;-69
2022/09/22 04:47:51;;;;;;;0.40;0.40;;;;;;;8.11;84.31;101296.34;5064098;28;20021;-70
2022/09/22 04:50:19;;;;;;;0.50;0.50;;;;;;;8.17;84.52;101296.44;5063233;28;20358;-70
2022/09/22 04:52:51;;;;;;;0.40;0.40;;;;;;;8.22;84.42;101292.22;5064268;28;20017;-70
2022/09/22 04:55:18;;;;;;;0.40;0.40;;;;;;;8.25;84.36;101288.78;5064732;28;20526;-69
2022/09/22 04:57:55;;;;;;;0.45;0.45;;;;;;;8.28;84.26;101291.44;5062794;28;20055;-70
2022/09/22 05:00:23;;;;;;;0.40;0.40;;;;;;;8.29;84.09;101286.28;5065025;28;20035;-69
2022/09/22 05:02:51;;;;;;;0.43;0.43;;;;;;;8.32;83.76;101295.81;5066813;28;20021;-70
2022/09/22 05:05:17;;;;;;;0.50;0.50;;;;;;;8.40;83.82;101290.75;5068524;28;20039;-70
2022/09/22 05:07:45;;;;;;;0.40;0.40;;;;;;;8.38;84.06;101295.91;5067159;28;20028;-70
2022/09/22 05:10:11;;;;;;;0.40;0.40;;;;;;;8.42;83.95;101289.03;5050540;28;20155;-69
2022/09/22 05:12:44;;;;;;;0.40;0.40;;;;;;;8.45;83.89;101291.66;5068319;28;20163;-72
2022/09/22 05:15:11;;;;;;;0.40;0.40;;;;;;;8.45;83.79;101289.09;5067573;28;20041;-71
2022/09/22 05:17:43;;;;;;;0.40;0.40;;;;;;;8.54;83.84;101283.19;5068055;28;20116;-70
2022/09/22 05:20:10;;;;;;;0.40;0.40;;;;;;;8.68;84.08;101284.28;5068359;28;20048;-69
2022/09/22 05:22:38;;;;;;;0.40;0.40;;;;;;;8.93;84.38;101282.00;5067917;28;20033;-71
2022/09/22 05:25:09;;;;;;;0.77;0.77;;;;;;;9.29;85.07;101286.75;5068016;28;20095;-70
2022/09/22 05:27:36;;;;;;;0.40;0.40;;;;;;;9.72;85.92;101294.09;5066763;28;20488;-70
2022/09/22 05:30:03;;;;;;;0.38;0.38;;;;;;;10.12;86.16;101283.19;5067633;28;20039;-70
2022/09/22 05:32:28;;;;;;;0.40;0.40;;;;;;;10.50;85.83;101278.25;5066631;28;20013;-70
2022/09/22 05:34:54;;;;;;;0.40;0.40;;;;;;;10.74;85.64;101284.44;5066454;28;20055;-70
2022/09/22 05:37:19;;;;;;;0.40;0.40;;;;;;;10.95;85.01;101282.81;5066538;28;20025;-70
2022/09/22 05:39:47;;;;;;;0.47;0.47;;;;;;;11.02;83.95;101275.03;5067603;28;20092;-70
2022/09/22 05:42:13;;;;;;;0.40;0.40;;;;;;;11.12;82.31;101288.94;5067405;28;20540;-70
2022/09/22 05:44:38;;;;;;;0.40;0.40;;;;;;;11.13;80.16;101290.69;5067498;28;20025;-69
2022/09/22 05:47:03;;;;;;;0.30;0.30;;;;;;;11.10;79.65;101276.81;5066129;28;20021;-69
2022/09/22 05:49:29;;;;;;;0.30;0.30;;;;;;;11.17;79.62;101285.53;5067284;28;20029;-70
2022/09/22 05:51:56;;;;;;;0.30;0.30;;;;;;;11.26;79.08;101283.78;5067735;28;20020;-71
2022/09/22 05:54:22;;;;;;;0.40;0.40;;;;;;;11.39;78.49;101286.41;5067529;28;20027;-70
2022/09/22 05:56:48;;;;;;;0.40;0.40;;;;;;;11.50;77.37;101286.47;5067177;28;20040;-68
2022/09/22 05:59:13;;;;;;;12.50;3.80;;;;;;;11.53;77.17;101282.13;5067302;28;20025;-70
2022/09/22 06:01:39;;;;;;;0.30;0.30;;;;;;;11.66;75.68;101287.34;5067001;28;20466;-70
2022/09/22 06:04:04;;;;;;;0.30;0.30;;;;;;;11.74;75.81;101287.38;5066998;28;20021;-70
2022/09/22 06:06:29;;;;;;;0.30;0.30;;;;;;;11.82;75.58;101277.81;5065792;28;20032;-68
2022/09/22 06:08:55;;;;;;;0.30;0.30;;;;;;;12.13;76.22;101290.88;5066765;28;20123;-70
2022/09/22 06:11:20;;;;;;;0.30;0.30;;;;;;;12.52;76.15;101279.53;5066808;28;20036;-69
2022/09/22 06:13:49;;;;;;;0.30;0.30;;;;;;;13.02;76.48;101288.03;5081568;28;20020;-69
2022/09/22 06:16:15;;;;;;;0.30;0.30;;;;;;;13.55;76.17;101289.50;5065242;28;20037;-68
2022/09/22 06:18:43;;;;;;;0.30;0.30;;;;;;;13.95;74.28;101277.91;5066333;28;20089;-69
2022/09/22 06:21:09;;;;;;;0.30;0.30;;;;;;;14.43;73.37;101283.53;5066734;28;20055;-70
2022/09/22 06:23:34;;;;;;;0.30;0.30;;;;;;;14.73;70.79;101287.56;5066858;28;20222;-69
2022/09/22 06:25:59;;;;;;;3.50;2.47;;;;;;;14.46;69.55;101283.50;5080995;28;20032;-69
2022/09/22 06:28:25;;;;;;;0.30;0.30;;;;;;;14.16;69.52;101275.09;5065211;28;20054;-69
2022/09/22 06:30:50;;;;;;;0.30;0.30;;;;;;;13.85;68.59;101292.75;5064042;28;20032;-69
2022/09/22 06:33:17;;;;;;;0.30;0.30;;;;;;;13.49;68.83;101292.13;5064146;28;20056;-68
2022/09/22 06:35:44;;;;;;;0.30;0.30;;;;;;;13.26;68.77;101300.94;5064600;28;20063;-70
2022/09/22 06:38:13;;;;;;;0.30;0.30;;;;;;;13.06;68.96;101291.50;5066428;28;20104;-69
2022/09/22 06:40:40;;;;;;;0.30;0.30;;;;;;;12.79;68.64;101298.56;5066365;28;20045;-70
2022/09/22 06:43:11;;;;;;;0.30;0.30;;;;;;;12.55;68.96;101289.94;5066480;28;20025;-70
2022/09/22 06:45:41;;;;;;;0.50;0.50;;;;;;;12.38;69.28;101287.38;5065270;28;20021;-70
2022/09/22 06:48:09;;;;;;;0.30;0.30;;;;;;;12.30;69.54;101295.16;5065984;28;20528;-70
2022/09/22 06:50:35;;;;;;;0.30;0.30;;;;;;;12.30;69.74;101289.97;5066457;28;20017;-69
2022/09/22 06:53:05;;;;;;;0.30;0.30;;;;;;;12.22;69.58;101289.97;5066277;28;20104;-69
2022/09/22 06:55:31;;;;;;;0.30;0.30;;;;;;;12.19;69.63;101294.34;5066297;28;20468;-70
2022/09/22 06:57:58;;;;;;;0.30;0.30;;;;;;;12.01;69.38;101291.69;5066051;28;20025;-69
2022/09/22 07:00:27;;;;;;;0.32;0.32;;;;;;;11.89;69.84;101294.28;5064717;28;20428;-69
2022/09/22 07:02:59;;;;;;;0.30;0.30;;;;;;;11.72;69.95;101283.88;5066084;28;20058;-69
2022/09/22 07:05:25;;;;;;;0.38;0.38;;;;;;;11.49;70.01;101298.59;5064971;28;20372;-70
2022/09/22 07:07:50;;;;;;;0.40;0.40;;;;;;;11.36;70.75;101287.28;5065876;28;20465;-70
2022/09/22 07:10:15;;;;;;;0.38;0.38;;;;;;;11.52;71.78;101292.50;5066006;28;20063;-70
2022/09/22 07:12:41;;;;;;;0.40;0.40;;;;;;;12.11;71.80;101284.78;5065928;28;20024;-69
2022/09/22 07:15:07;;;;;;;0.30;0.30;;;;;;;12.77;71.48;101289.88;5065793;28;20082;-69
2022/09/22 07:17:34;;;;;;;0.60;0.60;;;;;;;13.55;70.98;101286.91;5065391;28;20036;-70
2022/09/22 07:20:00;;;;;;;0.30;0.30;;;;;;;14.59;71.56;101276.41;5064364;28;20009;-70
2022/09/22 07:22:25;;;;;;;0.30;0.30;;;;;;;16.01;70.66;101284.94;5065754;28;20029;-70
2022/09/22 07:24:51;;;;;;;0.30;0.30;;;;;;;17.24;69.81;101283.50;5065584;28;20496;-72
2022/09/22 07:27:21;;;;;;;0.30;0.30;;;;;;;18.73;68.66;101278.00;5064888;28;20025;-70
2022/09/22 07:29:47;;;;;;;0.63;0.63;;;;;;;19.05;66.59;101279.72;5064425;28;20469;-69
2022/09/22 07:32:13;;;;;;;0.20;0.20;;;;;;;18.85;66.14;101276.81;5065149;28;20530;-70
2022/09/22 07:34:38;;;;;;;0.20;0.20;;;;;;;18.53;65.83;101285.56;5065555;28;20353;-70
2022/09/22 07:37:03;;;;;;;0.20;0.20;;;;;;;18.55;65.93;101275.00;5064233;28;20092;-72
2022/09/22 07:39:29;;;;;;;0.35;0.35;;;;;;;18.80;64.72;101282.22;5065430;28;20564;-70
2022/09/22 07:41:54;;;;;;;0.30;0.30;;;;;;;18.59;64.46;101271.41;5065305;28;20108;-70
2022/09/22 07:47:04;;;;;;;0.30;0.30;;;;;;;19.65;64.68;101289.28;5065297;28;20079;-70
2022/09/22 07:49:30;;;;;;;0.20;0.20;;;;;;;19.51;59.96;101287.09;5063628;28;20024;-70
2022/09/22 07:51:56;;;;;;;0.60;0.60;;;;;;;19.05;59.52;101284.97;5065381;28;20027;-70
2022/09/22 07:54:22;;;;;;;0.20;0.20;;;;;;;19.11;61.68;101283.94;5065190;28;20021;-70
2022/09/22 07:56:55;;;;;;;0.40;0.40;;;;;;;19.60;58.41;101290.38;5065303;28;20075;-69
2022/09/22 07:59:20;;;;;;;0.30;0.30;;;;;;;19.88;56.68;101284.16;5065127;28;20029;-70
2022/09/22 08:01:47;;;;;;;0.20;0.20;;;;;;;20.03;56.65;101282.84;5065112;28;20089;-70
2022/09/22 08:04:17;;;;;;;0.20;0.20;;;;;;;20.00;55.63;101283.75;5064953;28;20480;-70
2022/09/22 08:06:44;;;;;;;0.30;0.30;;;;;;;19.99;57.11;101270.63;5064915;28;20108;-70
2022/09/22 08:09:10;;;;;;;0.20;0.20;;;;;;;20.20;54.72;101279.59;5064709;28;20084;-71
2022/09/22 08:11:36;;;;;;;0.20;0.20;;;;;;;20.70;53.99;101276.97;5064973;28;20025;-72
2022/09/22 08:14:04;;;;;;;0.20;0.20;;;;;;;21.28;52.05;101289.72;5064845;28;20040;-71
2022/09/22 08:16:35;;;;;;;0.20;0.20;;;;;;;21.70;50.00;101279.25;5064646;28;20119;-70
2022/09/22 08:19:09;;;;;;;0.20;0.20;;;;;;;21.74;49.41;101282.63;5064352;28;20048;-71
2022/09/22 08:21:35;;;;;;;0.20;0.20;;;;;;;21.51;48.17;101282.66;5064732;28;20021;-71
2022/09/22 08:24:02;;;;;;;0.20;0.20;;;;;;;21.59;48.17;101282.34;5064626;28;20090;-71
2022/09/22 08:26:27;;;;;;;0.20;0.20;;;;;;;21.24;45.61;101277.56;5062479;28;20029;-70
2022/09/22 08:28:54;;;;;;;0.20;0.20;;;;;;;20.40;46.85;101278.88;5063536;28;20040;-70
2022/09/22 08:31:21;;;;;;;0.20;0.20;;;;;;;19.65;48.89;101289.28;5062826;28;20047;-70
2022/09/22 08:33:48;;;;;;;0.20;0.20;;;;;;;18.97;49.65;101276.44;5064271;28;20493;-70
2022/09/22 08:36:14;;;;;;;0.20;0.20;;;;;;;18.27;50.79;101286.28;5063963;28;20032;-70
2022/09/22 08:38:41;;;;;;;0.30;0.30;;;;;;;17.70;52.08;101299.91;5064367;28;20495;-70
2022/09/22 08:41:37;;;;;;;0.30;0.30;;;;;;;17.28;53.89;101291.28;5064224;28;20040;-70
2022/09/22 08:44:05;;;;;;;0.40;0.40;;;;;;;16.96;54.46;101295.41;5063077;28;20032;-69
2022/09/22 08:46:33;;;;;;;0.25;0.25;;;;;;;16.72;54.95;101287.16;5064178;28;20021;-69
2022/09/22 08:52:15;;;;;;;0.28;0.28;;;;;;;16.66;56.80;101284.66;5064322;28;20056;-70
2022/09/22 08:54:43;;;;;;;0.30;0.30;;;;;;;16.79;57.01;101293.16;5064319;28;20377;-70
2022/09/22 08:57:33;;;;;;;0.30;0.30;;;;;;;16.89;57.15;101288.56;5062719;28;20032;-70
2022/09/22 09:00:09;;;;;;;0.30;0.30;;;;;;;17.11;56.54;101293.41;5064351;28;20111;-70
2022/09/22 09:02:55;;;;;;;0.20;0.20;;;;;;;17.17;56.41;101295.88;5064065;28;20018;-70
2022/09/22 09:05:46;;;;;;;0.20;0.20;;;;;;;17.40;56.30;101298.00;5064179;28;20045;-70
2022/09/22 09:08:20;;;;;;;0.30;0.30;;;;;;;17.44;55.77;101290.91;5064030;28;20029;-70
2022/09/22 09:11:09;;;;;;;0.38;0.38;;;;;;;17.29;55.59;101297.38;5064164;28;20099;-70
2022/09/22 09:13:43;;;;;;;0.90;0.90;;;;;;;17.10;56.18;101297.78;5062869;28;20021;-71
2022/09/22 09:16:31;;;;;;;0.20;0.20;;;;;;;17.00;56.82;101302.31;5063960;28;20079;-70
2022/09/22 09:19:05;;;;;;;0.30;0.30;;;;;;;16.89;57.10;101305.16;5063874;28;20439;-70
2022/09/22 09:21:38;;;;;;;0.30;0.30;;;;;;;16.91;57.42;101305.13;5064070;28;20160;-70
2022/09/22 09:24:10;;;;;;;0.30;0.30;;;;;;;17.42;57.02;101303.19;5064085;28;20021;-70
2022/09/22 09:26:37;;;;;;;0.20;0.20;;;;;;;17.81;55.62;101297.91;5064020;28;20104;-70
2022/09/22 09:29:12;;;;;;;0.30;0.30;;;;;;;17.77;54.98;101301.50;5064028;28;20028;-70
2022/09/22 09:31:52;;;;;;;0.30;0.30;;;;;;;17.75;55.68;101311.19;5064154;28;20029;-70
2022/09/22 09:34:20;;;;;;;16.65;2.00;;;;;;;17.91;53.88;101303.78;5063761;28;20092;-70
2022/09/22 09:36:51;;;;;;;0.20;0.20;;;;;;;17.94;53.96;101305.47;5062589;28;20029;-70
2022/09/22 09:39:38;;;;;;;0.20;0.20;;;;;;;18.26;54.33;101297.72;5063826;28;20094;-70
2022/09/22 09:42:23;;;;;;;0.20;0.20;;;;;;;18.57;53.13;101305.63;5063783;28;20104;-70
2022/09/22 09:44:53;;;;;;;0.63;0.63;;;;;;;18.29;52.78;101297.63;5063786;28;20088;-70
2022/09/22 09:47:50;;;;;;;0.28;0.28;;;;;;;17.93;52.75;101301.13;5064484;28;20048;-70
2022/09/22 09:50:15;;;;;;;0.30;0.30;;;;;;;17.68;53.38;101305.19;5066104;28;20029;-70
2022/09/22 09:52:41;;;;;;;0.20;0.20;;;;;;;18.53;52.95;101295.25;5067472;28;20062;-69
2022/09/22 09:55:26;;;;;;;0.30;0.30;;;;;;;19.67;50.95;101291.88;5066255;28;20025;-71
2022/09/22 09:58:06;;;;;;;0.20;0.20;;;;;;;20.90;46.76;101295.53;5067242;28;20016;-69
2022/09/22 10:00:33;;;;;;;33.22;2.38;;;;;;;21.86;44.39;101294.50;5067350;28;20029;-69
2022/09/22 10:03:02;;;;;;;0.20;0.20;;;;;;;22.25;43.18;101285.78;5065668;28;20017;-70
2022/09/22 10:05:29;;;;;;;0.20;0.20;;;;;;;22.62;42.58;101288.59;5067217;28;20025;-70
2022/09/22 10:08:12;;;;;;;0.20;0.20;;;;;;;22.37;42.68;101292.31;5067443;28;20407;-70
2022/09/22 10:10:40;;;;;;;0.20;0.20;;;;;;;22.35;43.51;101295.97;5065528;28;20048;-70
2022/09/22 10:13:05;;;;;;;1.15;1.05;;;;;;;22.64;42.32;101289.38;5066901;28;20028;-70
2022/09/22 10:15:33;;;;;;;0.20;0.20;;;;;;;22.45;41.87;101291.09;5065549;28;20143;-71
2022/09/22 10:17:59;;;;;;;0.43;0.43;;;;;;;22.54;40.96;101291.56;5066835;28;20025;-70
2022/09/22 10:20:30;;;;;;;0.20;0.20;;;;;;;22.42;40.67;101276.25;5067053;28;20051;-70
2022/09/22 10:23:20;;;;;;;0.20;0.20;;;;;;;22.67;40.19;101287.53;5066841;28;20036;-70
2022/09/22 10:25:47;;;;;;;0.35;0.35;;;;;;;22.73;39.57;101285.44;5066652;28;20025;-70
2022/09/22 10:28:17;;;;;;;0.20;0.20;;;;;;;22.90;38.28;101273.22;5065510;28;20436;-71
2022/09/22 10:30:56;;;;;;;0.20;0.20;;;;;;;23.15;38.46;101287.94;5066596;28;20060;-71
2022/09/22 10:33:21;;;;;;;0.20;0.20;;;;;;;23.48;37.50;101281.13;5066338;28;20028;-71
2022/09/22 10:36:04;;;;;;;0.20;0.20;;;;;;;23.71;37.12;101281.75;5066656;28;20020;-72
2022/09/22 10:38:34;;;;;;;0.10;0.10;;;;;;;23.99;36.53;101280.38;5066391;28;20044;-72
2022/09/22 10:41:06;;;;;;;0.10;0.10;;;;;;;24.05;36.67;101292.44;5066648;28;20082;-72
2022/09/22 10:43:45;;;;;;;0.20;0.20;;;;;;;24.05;37.53;101288.00;5066768;28;20017;-72
2022/09/22 10:46:48;;;;;;;0.20;0.20;;;;;;;24.10;36.91;101285.97;5066563;28;20021;-72
2022/09/22 10:49:38;;;;;;;0.20;0.20;;;;;;;23.82;37.28;101289.19;5066127;28;20206;-70
2022/09/22 10:52:12;;;;;;;0.10;0.10;;;;;;;23.56;36.96;101286.91;5066453;28;20013;-70
2022/09/22 10:55:02;;;;;;;0.22;0.22;;;;;;;23.55;37.87;101274.59;5066242;28;20052;-71
2022/09/22 10:57:53;;;;;;;0.20;0.20;;;;;;;23.77;37.64;101271.72;5066263;28;20017;-71
2022/09/22 11:00:33;;;;;;;0.20;0.20;;;;;;;24.04;36.85;101274.81;5066289;28;20021;-71
2022/09/22 11:03:16;;;;;;;0.20;0.20;;;;;;;24.33;36.35;101270.66;5065869;28;20051;-71
2022/09/22 11:14:37;;;;;;;;;;;;;;;24.73;34.81;101270.31;5066440;28;20455;-71
2022/09/22 11:17:21;;;;;;;0.20;0.20;;;;;;;24.64;34.88;101268.16;5066065;28;19909;-71
2022/09/22 11:20:11;;;;;;;0.20;0.20;;;;;;;24.95;35.66;101268.31;5065537;28;20047;-70
2022/09/22 11:22:58;;;;;;;0.10;0.10;;;;;;;25.10;35.12;101270.09;5065732;28;20021;-71
2022/09/22 11:25:40;;;;;;;0.17;0.17;;;;;;;25.43;34.87;101273.53;5064401;28;20025;-70
2022/09/22 11:28:16;;;;;;;0.20;0.20;;;;;;;25.06;34.73;101265.03;5064750;28;20013;-70
2022/09/22 11:30:59;;;;;;;0.47;0.47;;;;;;;24.65;34.82;101261.91;5065034;28;20047;-70
2022/09/22 11:33:42;;;;;;;0.47;0.47;;;;;;;23.73;35.87;101270.16;5065314;28;20017;-70
2022/09/22 11:36:32;;;;;;;0.20;0.20;;;;;;;22.03;37.32;101270.84;5065379;28;20025;-70
2022/09/22 11:39:16;;;;;;;0.35;0.35;;;;;;;20.51;40.45;101262.66;5065277;28;20037;-70
2022/09/22 11:41:51;;;;;;;0.20;0.20;;;;;;;19.67;42.60;101270.81;5065556;28;20025;-70
2022/09/22 11:44:29;;;;;;;0.20;0.20;;;;;;;19.22;44.24;101275.72;5065249;28;20059;-70
2022/09/22 11:47:04;;;;;;;0.20;0.20;;;;;;;18.89;44.64;101274.03;5064023;28;20020;-71
2022/09/22 11:49:58;;;;;;;0.20;0.20;;;;;;;18.73;45.23;101270.13;5063631;28;20122;-70
2022/09/22 11:52:42;;;;;;;0.20;0.20;;;;;;;18.52;45.55;101265.44;5065288;28;20487;-70
2022/09/22 11:55:35;;;;;;;0.20;0.20;;;;;;;18.30;47.30;101258.16;5063899;28;20039;-70
2022/09/22 11:58:08;;;;;;;0.30;0.30;;;;;;;18.12;48.02;101263.91;5064421;28;20047;-70
2022/09/22 12:00:39;;;;;;;0.30;0.30;;;;;;;17.86;48.79;101249.66;5064703;28;20028;-71
2022/09/22 12:03:10;;;;;;;0.20;0.20;;;;;;;17.54;49.38;101250.41;5064596;28;20057;-71
2022/09/22 12:05:50;;;;;;;0.30;0.30;;;;;;;17.30;50.57;101257.13;5064835;28;20027;-71